.
WxDataArchive / Data Records for 2012-01-18
2012-01-17 January 2012 2012-01-19

Data Records for Wednesday, 18 January 2012

Time	Temp	Chill	HIndex	Humid	Dewpt	 Wind 	HiWind	WindDir	Rain 	Barom 
-----	----	-----	------	-----	-----	------	------	-------	-----	----- 
00:00	27.2	27.2	27.2	73	19.7	2	5	270	0.00	30.098 
00:05	27.2	27.2	27.2	73	19.7	2	5	315	0.00	30.098 
00:10	27.2	27.2	27.2	74	20.0	2	6	315	0.00	30.098 
00:15	27.2	27.2	27.2	73	19.7	2	6	270	0.00	30.107 
00:20	27.0	27.0	27.0	73	19.5	2	6	270	0.00	30.107 
00:25	26.9	22.2	26.9	71	18.8	4	7	270	0.00	30.107 
00:30	26.7	26.7	26.7	70	18.3	3	11	270	0.00	30.118 
00:35	26.4	26.4	26.4	70	18.0	3	9	292	0.00	30.118 
00:40	26.3	26.3	26.3	71	18.2	2	7	338	0.00	30.118 
00:45	26.1	26.1	26.1	72	18.3	2	7	315	0.00	30.123 
00:50	26.1	26.1	26.1	71	18.0	2	6	315	0.00	30.123 
00:55	26.3	26.3	26.3	72	18.5	1	4	270	0.00	30.123 
01:00	26.3	26.3	26.3	73	18.8	1	5	248	0.00	30.127 
01:05	26.3	26.3	26.3	73	18.8	1	5	270	0.00	30.127 
01:10	26.3	26.3	26.3	73	18.8	2	5	292	0.00	30.127 
01:15	26.4	26.4	26.4	74	19.3	2	3	225	0.00	30.145 
01:20	26.4	26.4	26.4	74	19.3	2	5	315	0.00	30.145 
01:25	26.4	26.4	26.4	74	19.3	1	3	292	0.00	30.145 
01:30	26.4	26.4	26.4	74	19.3	2	6	292	0.00	30.150 
01:35	26.3	26.3	26.3	74	19.2	2	5	315	0.00	30.150 
01:40	26.1	26.1	26.1	73	18.7	2	6	315	0.00	30.150 
01:45	26.1	26.1	26.1	73	18.7	2	4	315	0.00	30.155 
01:50	26.1	26.1	26.1	73	18.7	1	3	315	0.00	30.155 
01:55	26.1	26.1	26.1	73	18.7	1	5	338	0.00	30.155 
02:00	26.1	26.1	26.1	72	18.3	2	4	315	0.00	30.161 
02:05	26.1	26.1	26.1	72	18.3	1	4	292	0.00	30.161 
02:10	26.1	26.1	26.1	71	18.0	2	6	248	0.00	30.161 
02:15	26.1	26.1	26.1	71	18.0	1	4	248	0.00	30.170 
02:20	26.1	26.1	26.1	72	18.3	1	5	292	0.00	30.170 
02:25	26.1	26.1	26.1	69	17.3	3	6	270	0.00	30.170 
02:30	26.1	26.1	26.1	70	17.7	1	3	0	0.00	30.179 
02:35	26.3	26.3	26.3	71	18.2	1	2	338	0.00	30.179 
02:40	26.3	26.3	26.3	73	18.8	1	3	270	0.00	30.179 
02:45	26.1	26.1	26.1	74	19.0	1	2	270	0.00	30.181 
02:50	26.0	26.0	26.0	74	18.9	1	3	270	0.00	30.181 
02:55	26.0	26.0	26.0	75	19.2	0	3	338	0.00	30.181 
03:00	26.0	26.0	26.0	75	19.2	1	3	338	0.00	30.186 
03:05	26.0	26.0	26.0	76	19.5	1	3	315	0.00	30.186 
03:10	26.0	26.0	26.0	77	19.8	1	4	292	0.00	30.186 
03:15	26.0	26.0	26.0	77	19.8	0	2	315	0.00	30.193 
03:20	25.8	25.8	25.8	78	19.9	2	4	270	0.00	30.193 
03:25	25.6	25.6	25.6	79	20.0	2	4	270	0.00	30.193 
03:30	25.4	25.4	25.4	80	20.1	1	4	248	0.00	30.196 
03:35	25.4	25.4	25.4	80	20.1	1	4	270	0.00	30.196 
03:40	25.4	25.4	25.4	79	19.8	1	4	338	0.00	30.196 
03:45	25.3	25.3	25.3	78	19.4	2	5	338	0.00	30.196 
03:50	25.3	25.3	25.3	77	19.1	1	4	315	0.00	30.196 
03:55	25.4	25.4	25.4	77	19.2	2	4	270	0.00	30.196 
04:00	25.3	25.3	25.3	78	19.4	2	4	270	0.00	30.198 
04:05	25.0	25.0	25.0	78	19.1	2	5	270	0.00	30.198 
04:10	24.7	24.7	24.7	78	18.8	2	4	270	0.00	30.198 
04:15	24.7	24.7	24.7	77	18.5	1	3	270	0.00	30.200 
04:20	24.7	24.7	24.7	77	18.5	2	5	270	0.00	30.200 
04:25	24.5	24.5	24.5	75	17.7	3	5	248	0.00	30.200 
04:30	24.5	24.5	24.5	74	17.4	3	5	292	0.00	30.203 
04:35	24.5	24.5	24.5	74	17.4	2	4	270	0.00	30.203 
04:40	24.4	24.4	24.4	74	17.3	1	3	338	0.00	30.203 
04:45	24.4	24.4	24.4	74	17.3	1	4	338	0.00	30.208 
04:50	24.4	24.4	24.4	73	17.0	2	6	315	0.00	30.208 
04:55	24.4	24.4	24.4	73	17.0	2	6	248	0.00	30.208 
05:00	24.2	24.2	24.2	73	16.8	3	6	248	0.00	30.214 
05:05	24.2	24.2	24.2	73	16.8	2	4	248	0.00	30.214 
05:10	24.2	24.2	24.2	73	16.8	2	5	338	0.00	30.214 
05:15	24.2	24.2	24.2	72	16.5	2	3	315	0.00	30.220 
05:20	24.2	24.2	24.2	72	16.5	1	4	248	0.00	30.220 
05:25	24.2	24.2	24.2	73	16.8	1	2	0	0.00	30.220 
05:30	24.1	24.1	24.1	73	16.7	2	4	270	0.00	30.223 
05:35	24.1	24.1	24.1	73	16.7	2	4	292	0.00	30.223 
05:40	23.9	23.9	23.9	73	16.5	2	4	248	0.00	30.223 
05:45	23.8	23.8	23.8	73	16.4	3	5	248	0.00	30.222 
05:50	23.8	23.8	23.8	73	16.4	2	4	270	0.00	30.222 
05:55	23.6	23.6	23.6	73	16.2	2	4	270	0.00	30.222 
06:00	23.6	23.6	23.6	73	16.2	2	4	270	0.00	30.221 
06:05	23.6	23.6	23.6	73	16.2	2	4	270	0.00	30.221 
06:10	23.5	23.5	23.5	73	16.1	2	3	270	0.00	30.221 
06:15	23.5	23.5	23.5	73	16.1	2	4	270	0.00	30.229 
06:20	23.5	23.5	23.5	73	16.1	1	5	270	0.00	30.229 
06:25	23.5	23.5	23.5	73	16.1	1	4	248	0.00	30.229 
06:30	23.5	23.5	23.5	72	15.8	1	3	248	0.00	30.235 
06:35	23.5	23.5	23.5	72	15.8	1	3	248	0.00	30.235 
06:40	23.6	23.6	23.6	73	16.2	1	3	248	0.00	30.235 
06:45	23.6	23.6	23.6	73	16.2	0	2	248	0.00	30.238 
06:50	23.5	23.5	23.5	74	16.5	1	3	248	0.00	30.238 
06:55	23.5	23.5	23.5	75	16.8	0	2	248	0.00	30.238 
07:00	23.3	23.3	23.3	75	16.6	0	2	248	0.00	30.239 
07:05	23.3	23.3	23.3	73	15.9	1	3	248	0.00	30.239 
07:10	23.3	23.3	23.3	70	15.0	0	2	0	0.00	30.239 
07:15	23.3	23.3	23.3	69	14.7	1	4	270	0.00	30.251 
07:20	23.5	23.5	23.5	68	14.5	1	3	270	0.00	30.251 
07:25	23.3	23.3	23.3	67	14.0	1	5	315	0.00	30.251 
07:30	23.3	23.3	23.3	66	13.6	0	3	315	0.00	30.256 
07:35	23.3	23.3	23.3	64	13.0	1	4	315	0.00	30.256 
07:40	23.2	23.2	23.2	63	12.5	2	5	338	0.00	30.256 
07:45	23.2	23.2	23.2	63	12.5	1	5	270	0.00	30.258 
07:50	23.3	23.3	23.3	64	13.0	0	2	315	0.00	30.258 
07:55	23.3	23.3	23.3	64	13.0	1	2	315	0.00	30.258 
08:00	23.2	23.2	23.2	63	12.5	1	6	315	0.00	30.261 
08:05	23.2	23.2	23.2	63	12.5	1	3	315	0.00	30.261 
08:10	23.0	23.0	23.0	62	11.9	1	3	315	0.00	30.261 
08:15	23.0	23.0	23.0	62	11.9	0	3	292	0.00	30.269 
08:20	23.0	23.0	23.0	63	12.3	0	2	292	0.00	30.269 
08:25	23.0	23.0	23.0	63	12.3	0	2	292	0.00	30.269 
08:30	23.2	23.2	23.2	64	12.9	0	1	292	0.00	30.272 
08:35	23.2	23.2	23.2	64	12.9	0	2	292	0.00	30.272 
08:40	23.3	23.3	23.3	65	13.3	0	1	292	0.00	30.272 
08:45	23.3	23.3	23.3	65	13.3	0	2	292	0.00	30.272 
08:50	23.3	23.3	23.3	64	13.0	0	2	292	0.00	30.272 
08:55	23.5	23.5	23.5	65	13.5	0	3	292	0.00	30.272 
09:00	23.5	23.5	23.5	66	13.8	0	2	292	0.00	30.274 
09:05	23.5	23.5	23.5	69	14.9	1	2	292	0.00	30.274 
09:10	23.5	23.5	23.5	69	14.9	1	3	270	0.00	30.274 
09:15	23.3	23.3	23.3	70	15.0	0	2	270	0.00	30.286 
09:20	23.3	23.3	23.3	70	15.0	1	3	270	0.00	30.286 
09:25	23.3	23.3	23.3	70	15.0	0	3	270	0.00	30.286 
09:30	23.3	23.3	23.3	70	15.0	0	2	270	0.00	30.293 
09:35	23.3	23.3	23.3	69	14.7	1	2	270	0.00	30.293 
09:40	23.3	23.3	23.3	69	14.7	0	1	270	0.00	30.293 
09:45	23.3	23.3	23.3	69	14.7	1	3	270	0.00	30.300 
09:50	23.5	23.5	23.5	69	14.9	1	3	270	0.00	30.300 
09:55	23.3	23.3	23.3	68	14.3	1	3	270	0.00	30.300 
10:00	23.5	23.5	23.5	69	14.9	1	3	248	0.00	30.306 
10:05	23.5	23.5	23.5	69	14.9	1	3	248	0.00	30.306 
10:10	23.5	23.5	23.5	69	14.9	1	3	225	0.00	30.306 
10:15	23.6	23.6	23.6	69	14.9	1	3	225	0.00	30.309 
10:20	23.6	23.6	23.6	69	14.9	1	3	225	0.00	30.309 
10:25	23.9	23.9	23.9	69	15.2	0	2	225	0.00	30.309 
10:30	24.1	24.1	24.1	69	15.4	1	2	225	0.00	30.309 
10:35	24.2	24.2	24.2	68	15.2	0	2	225	0.00	30.309 
10:40	24.2	24.2	24.2	67	14.8	1	3	225	0.00	30.309 
10:45	24.1	24.1	24.1	66	14.4	1	3	225	0.00	30.307 
10:50	23.9	23.9	23.9	65	13.9	1	2	225	0.00	30.307 
10:55	24.1	24.1	24.1	66	14.4	0	2	225	0.00	30.307 
11:00	24.2	24.2	24.2	65	14.2	0	2	225	0.00	30.302 
11:05	24.2	24.2	24.2	64	13.8	1	2	225	0.00	30.302 
11:10	24.4	24.4	24.4	64	14.0	0	2	225	0.00	30.302 
11:15	24.7	24.7	24.7	64	14.3	0	2	225	0.00	30.292 
11:20	24.8	24.8	24.8	64	14.4	1	2	248	0.00	30.292 
11:25	24.8	24.8	24.8	62	13.7	1	3	248	0.00	30.292 
11:30	24.8	24.8	24.8	63	14.0	0	2	248	0.00	30.287 
11:35	25.0	25.0	25.0	62	13.8	0	1	248	0.00	30.287 
11:40	25.1	25.1	25.1	62	13.9	0	2	248	0.00	30.287 
11:45	25.0	25.0	25.0	61	13.5	0	2	248	0.00	30.282 
11:50	24.8	24.8	24.8	61	13.3	0	1	248	0.00	30.282 
11:55	24.8	24.8	24.8	61	13.3	0	2	248	0.00	30.282 
12:00	25.0	25.0	25.0	62	13.8	1	3	292	0.00	30.273 
12:05	25.3	25.3	25.3	62	14.1	1	4	248	0.00	30.273 
12:10	25.6	25.6	25.6	62	14.4	1	4	248	0.00	30.273 
12:15	25.4	25.4	25.4	60	13.5	1	2	248	0.00	30.275 
12:20	25.4	25.4	25.4	59	13.1	0	3	248	0.00	30.275 
12:25	25.3	25.3	25.3	59	13.0	1	3	248	0.00	30.275 
12:30	25.3	25.3	25.3	60	13.4	1	3	248	0.00	30.269 
12:35	25.0	25.0	25.0	60	13.1	0	3	248	0.00	30.269 
12:40	25.0	25.0	25.0	60	13.1	1	4	248	0.00	30.269 
12:45	25.1	25.1	25.1	61	13.6	1	3	248	0.00	30.260 
12:50	25.0	25.0	25.0	61	13.5	0	2	248	0.00	30.260 
12:55	25.3	25.3	25.3	61	13.8	1	3	248	0.00	30.260 
13:00	25.4	25.4	25.4	60	13.5	1	3	248	0.00	30.255 
13:05	25.4	25.4	25.4	59	13.1	1	5	248	0.00	30.255 
13:10	25.3	25.3	25.3	60	13.4	1	4	248	0.00	30.255 
13:15	25.3	25.3	25.3	61	13.8	1	5	248	0.00	30.244 
13:20	25.4	25.4	25.4	60	13.5	1	3	248	0.00	30.244 
13:25	25.4	25.4	25.4	61	13.9	0	2	248	0.00	30.244 
13:30	25.7	25.7	25.7	61	14.1	0	2	248	0.00	30.238 
13:35	25.7	25.7	25.7	60	13.8	2	5	248	0.00	30.238 
13:40	25.8	25.8	25.8	60	13.9	1	5	225	0.00	30.238 
13:45	25.7	25.7	25.7	59	13.4	1	4	248	0.00	30.231 
13:50	25.4	25.4	25.4	59	13.1	1	3	248	0.00	30.231 
13:55	25.3	25.3	25.3	60	13.4	1	5	270	0.00	30.231 
14:00	25.1	25.1	25.1	61	13.6	0	2	270	0.00	30.226 
14:05	25.3	25.3	25.3	61	13.8	1	4	270	0.00	30.226 
14:10	25.4	25.4	25.4	62	14.2	0	2	248	0.00	30.226 
14:15	26.0	26.0	26.0	62	14.8	0	4	248	0.00	30.208 
14:20	26.1	26.1	26.1	60	14.1	1	4	248	0.00	30.208 
14:25	26.3	26.3	26.3	59	13.9	1	3	270	0.00	30.208 
14:30	26.1	26.1	26.1	58	13.4	0	3	270	0.00	30.203 
14:35	26.1	26.1	26.1	59	13.8	1	3	270	0.00	30.203 
14:40	26.1	26.1	26.1	59	13.8	1	4	112	0.00	30.203 
14:45	26.0	26.0	26.0	59	13.7	1	3	112	0.00	30.193 
14:50	26.0	26.0	26.0	60	14.0	1	3	112	0.00	30.193 
14:55	26.3	26.3	26.3	58	13.6	0	3	270	0.00	30.193 
15:00	26.4	26.4	26.4	58	13.7	0	2	270	0.00	30.193 
15:05	26.4	26.4	26.4	58	13.7	0	2	270	0.00	30.193 
15:10	26.4	26.4	26.4	58	13.7	1	3	292	0.00	30.193 
15:15	26.6	26.6	26.6	58	13.8	1	3	135	0.00	30.189 
15:20	26.6	26.6	26.6	59	14.2	1	6	248	0.00	30.189 
15:25	26.4	26.4	26.4	60	14.4	1	3	248	0.00	30.189 
15:30	26.4	26.4	26.4	61	14.8	0	2	248	0.00	30.193 
15:35	26.3	26.3	26.3	59	13.9	1	3	248	0.00	30.193 
15:40	26.3	26.3	26.3	60	14.3	1	4	45	0.00	30.193 
15:45	26.4	26.4	26.4	58	13.7	1	4	248	0.00	30.194 
15:50	26.4	26.4	26.4	59	14.0	0	2	248	0.00	30.194 
15:55	26.6	26.6	26.6	60	14.6	1	3	248	0.00	30.194 
16:00	26.4	26.4	26.4	60	14.4	1	5	90	0.00	30.193 
16:05	26.3	26.3	26.3	60	14.3	1	3	90	0.00	30.193 
16:10	26.1	26.1	26.1	61	14.5	1	2	90	0.00	30.193 
16:15	25.8	25.8	25.8	61	14.2	1	3	0	0.00	30.184 
16:20	25.6	25.6	25.6	63	14.8	1	4	112	0.00	30.184 
16:25	25.4	25.4	25.4	63	14.6	1	5	248	0.00	30.184 
16:30	25.3	25.3	25.3	63	14.5	1	3	292	0.00	30.181 
16:35	25.0	25.0	25.0	62	13.8	1	5	112	0.00	30.181 
16:40	25.0	25.0	25.0	63	14.2	0	2	112	0.00	30.181 
16:45	24.8	24.8	24.8	64	14.4	0	2	112	0.00	30.177 
16:50	24.8	24.8	24.8	64	14.4	0	2	90	0.00	30.177 
16:55	24.7	24.7	24.7	65	14.6	0	2	90	0.00	30.177 
17:00	24.5	24.5	24.5	65	14.4	0	2	90	0.00	30.172 
17:05	24.4	24.4	24.4	65	14.3	0	4	248	0.00	30.172 
17:10	24.2	24.2	24.2	66	14.5	0	3	248	0.00	30.172 
17:15	24.1	24.1	24.1	66	14.4	0	1	248	0.00	30.168 
17:20	24.1	24.1	24.1	67	14.8	0	3	248	0.00	30.168 
17:25	23.9	23.9	23.9	67	14.6	0	2	248	0.00	30.168 
17:30	23.8	23.8	23.8	68	14.8	1	5	248	0.00	30.166 
17:35	23.8	23.8	23.8	68	14.8	0	2	248	0.00	30.166 
17:40	23.6	23.6	23.6	68	14.6	0	2	292	0.00	30.166 
17:45	23.6	23.6	23.6	69	14.9	0	2	292	0.00	30.163 
17:50	23.6	23.6	23.6	69	14.9	0	3	270	0.00	30.163 
17:55	23.6	23.6	23.6	70	15.3	0	3	90	0.00	30.163 
18:00	23.6	23.6	23.6	70	15.3	0	1	90	0.00	30.162 
18:05	23.8	23.8	23.8	70	15.5	0	2	90	0.00	30.162 
18:10	23.8	23.8	23.8	70	15.5	0	3	90	0.00	30.162 
18:15	23.8	23.8	23.8	70	15.5	0	2	90	0.00	30.153 
18:20	23.6	23.6	23.6	70	15.3	0	1	90	0.00	30.153 
18:25	23.6	23.6	23.6	70	15.3	1	4	270	0.00	30.153 
18:30	23.5	23.5	23.5	71	15.5	0	1	270	0.00	30.158 
18:35	23.5	23.5	23.5	71	15.5	0	1	270	0.00	30.158 
18:40	23.3	23.3	23.3	72	15.6	0	2	270	0.00	30.158 
18:45	23.2	23.2	23.2	72	15.5	0	1	270	0.00	30.151 
18:50	23.0	23.0	23.0	72	15.3	0	0	---	0.00	30.151 
18:55	22.9	22.9	22.9	73	15.6	0	0	---	0.00	30.151 
19:00	22.5	22.5	22.5	73	15.2	0	0	---	0.00	30.149 
19:05	22.4	22.4	22.4	73	15.1	0	0	---	0.00	30.149 
19:10	22.2	22.2	22.2	74	15.2	0	0	---	0.00	30.149 
19:15	22.1	22.1	22.1	74	15.1	0	1	270	0.00	30.142 
19:20	22.1	22.1	22.1	75	15.4	0	1	270	0.00	30.142 
19:25	22.1	22.1	22.1	75	15.4	0	1	270	0.00	30.142 
19:30	22.1	22.1	22.1	75	15.4	0	1	270	0.00	30.137 
19:35	21.9	21.9	21.9	76	15.5	0	1	270	0.00	30.137 
19:40	21.9	21.9	21.9	76	15.5	0	1	270	0.00	30.137 
19:45	21.9	21.9	21.9	76	15.5	0	1	270	0.00	30.133 
19:50	21.8	21.8	21.8	76	15.4	0	1	270	0.00	30.133 
19:55	21.8	21.8	21.8	77	15.7	0	1	270	0.00	30.133 
20:00	21.6	21.6	21.6	77	15.5	0	1	270	0.00	30.129 
20:05	21.6	21.6	21.6	77	15.5	0	1	270	0.00	30.129 
20:10	21.6	21.6	21.6	77	15.5	0	0	---	0.00	30.129 
20:15	21.4	21.4	21.4	78	15.6	0	1	270	0.00	30.127 
20:20	21.4	21.4	21.4	78	15.6	0	1	270	0.00	30.127 
20:25	21.4	21.4	21.4	78	15.6	0	1	270	0.00	30.127 
20:30	21.4	21.4	21.4	78	15.6	0	1	270	0.00	30.123 
20:35	21.4	21.4	21.4	79	15.9	0	2	270	0.00	30.123 
20:40	21.4	21.4	21.4	79	15.9	0	1	270	0.00	30.123 
20:45	21.6	21.6	21.6	79	16.1	0	2	270	0.00	30.116 
20:50	21.6	21.6	21.6	79	16.1	0	2	270	0.00	30.116 
20:55	21.6	21.6	21.6	79	16.1	0	1	270	0.00	30.116 
21:00	21.8	21.8	21.8	79	16.3	0	2	270	0.00	30.114 
21:05	21.8	21.8	21.8	79	16.3	0	3	270	0.00	30.114 
21:10	21.9	21.9	21.9	79	16.4	1	2	270	0.00	30.114 
21:15	22.1	22.1	22.1	78	16.3	1	3	270	0.00	30.099 
21:20	22.2	22.2	22.2	78	16.4	0	3	90	0.00	30.099 
21:25	22.4	22.4	22.4	77	16.3	2	6	112	0.00	30.099 
21:30	22.5	22.5	22.5	77	16.4	2	5	112	0.00	30.080 
21:35	22.7	22.7	22.7	77	16.6	1	3	90	0.00	30.080 
21:40	22.7	22.7	22.7	77	16.6	1	4	112	0.00	30.080 
21:45	22.9	22.9	22.9	76	16.5	1	4	90	0.00	30.070 
21:50	22.9	22.9	22.9	76	16.5	1	5	135	0.00	30.070 
21:55	22.9	22.9	22.9	76	16.5	2	4	90	0.00	30.070 
22:00	23.0	23.0	23.0	76	16.6	1	4	90	0.00	30.062 
22:05	23.0	23.0	23.0	76	16.6	1	4	90	0.00	30.062 
22:10	23.2	23.2	23.2	76	16.8	1	4	90	0.00	30.062 
22:15	23.2	23.2	23.2	75	16.5	1	3	112	0.00	30.057 
22:20	23.2	23.2	23.2	75	16.5	2	6	112	0.00	30.057 
22:25	23.3	23.3	23.3	75	16.6	2	5	112	0.00	30.057 
22:30	23.3	23.3	23.3	75	16.6	1	4	90	0.00	30.052 
22:35	23.5	23.5	23.5	75	16.8	1	4	90	0.00	30.052 
22:40	23.5	23.5	23.5	75	16.8	1	3	90	0.00	30.052 
22:45	23.5	23.5	23.5	75	16.8	2	5	90	0.00	30.039 
22:50	23.3	23.3	23.3	75	16.6	1	3	90	0.00	30.039 
22:55	23.3	23.3	23.3	75	16.6	0	3	90	0.00	30.039 
23:00	23.3	23.3	23.3	75	16.6	1	2	90	0.00	30.034 
23:05	23.3	23.3	23.3	75	16.6	1	4	112	0.00	30.034 
23:10	23.5	23.5	23.5	75	16.8	1	4	112	0.00	30.034 
23:15	23.5	23.5	23.5	75	16.8	2	4	112	0.00	30.022 
23:20	23.6	23.6	23.6	75	16.9	1	3	112	0.00	30.022 
23:25	23.6	23.6	23.6	75	16.9	1	4	90	0.00	30.022 
23:30	23.8	23.8	23.8	75	17.1	1	4	90	0.00	30.025 
23:35	23.8	23.8	23.8	75	17.1	1	4	270	0.00	30.025 
23:40	23.8	23.8	23.8	75	17.1	1	4	68	0.00	30.025 
23:45	23.8	23.8	23.8	75	17.1	0	2	90	0.00	30.030 
23:50	23.8	23.8	23.8	75	17.1	1	5	90	0.00	30.030 
23:55	23.9	23.9	23.9	75	17.2	1	3	90	0.00	30.030 

CoCoRaHS
IN-AL-39
A2 Web Hosting
Creative Commons License
GoDaddy
search engine by freefind advanced

loaded 2018-11-20 15:20:42 • last modified 2010-11-18 10:43:29
Privacy PolicyDisclaimer
• wx.awcolley.com is powered by PmWiki v.2002016 •
• all content (unless otherwise noted) © 2018 A W Colley